sensor_id;sensor_type;location;lat;lon;timestamp;pressure;altitude;pressure_sealevel;temperature;humidity
17521;BME280;8878;-33.370;-70.552;2023-02-14T00:01:42;91969.28;;;28.11;27.02
17521;BME280;8878;-33.370;-70.552;2023-02-14T00:04:27;91974.81;;;28.29;26.73
17521;BME280;8878;-33.370;-70.552;2023-02-14T00:06:57;91965.06;;;28.17;26.84
17521;BME280;8878;-33.370;-70.552;2023-02-14T00:09:29;91986.59;;;28.54;26.21
17521;BME280;8878;-33.370;-70.552;2023-02-14T00:12:01;91985.47;;;28.62;26.72
17521;BME280;8878;-33.370;-70.552;2023-02-14T00:14:34;91982.31;;;28.53;27.32
17521;BME280;8878;-33.370;-70.552;2023-02-14T00:17:20;91991.34;;;28.10;27.94
17521;BME280;8878;-33.370;-70.552;2023-02-14T00:19:51;91997.78;;;27.87;28.29
17521;BME280;8878;-33.370;-70.552;2023-02-14T00:22:24;91993.91;;;27.85;28.27
17521;BME280;8878;-33.370;-70.552;2023-02-14T00:24:57;91998.41;;;28.18;27.73
17521;BME280;8878;-33.370;-70.552;2023-02-14T00:27:36;91990.31;;;28.25;29.56
17521;BME280;8878;-33.370;-70.552;2023-02-14T00:30:07;91999.19;;;28.22;30.32
17521;BME280;8878;-33.370;-70.552;2023-02-14T00:32:37;91997.63;;;28.21;29.56
17521;BME280;8878;-33.370;-70.552;2023-02-14T00:35:08;92003.34;;;28.05;29.75
17521;BME280;8878;-33.370;-70.552;2023-02-14T00:37:38;92007.53;;;27.95;30.29
17521;BME280;8878;-33.370;-70.552;2023-02-14T00:40:08;92003.19;;;27.87;31.14
17521;BME280;8878;-33.370;-70.552;2023-02-14T00:42:40;92010.84;;;27.78;31.33
17521;BME280;8878;-33.370;-70.552;2023-02-14T00:45:10;92007.34;;;27.74;31.07
17521;BME280;8878;-33.370;-70.552;2023-02-14T00:47:39;92006.88;;;27.65;31.92
17521;BME280;8878;-33.370;-70.552;2023-02-14T00:50:09;92003.72;;;27.56;32.11
17521;BME280;8878;-33.370;-70.552;2023-02-14T00:52:39;92018.16;;;27.30;31.40
17521;BME280;8878;-33.370;-70.552;2023-02-14T00:55:08;92018.13;;;27.26;32.05
17521;BME280;8878;-33.370;-70.552;2023-02-14T00:57:39;92024.34;;;27.31;33.17
17521;BME280;8878;-33.370;-70.552;2023-02-14T01:00:10;92022.00;;;27.29;32.62
17521;BME280;8878;-33.370;-70.552;2023-02-14T01:02:40;92027.41;;;27.25;33.80
17521;BME280;8878;-33.370;-70.552;2023-02-14T01:05:09;92029.69;;;27.23;33.37
17521;BME280;8878;-33.370;-70.552;2023-02-14T01:07:38;92031.88;;;27.11;34.24
17521;BME280;8878;-33.370;-70.552;2023-02-14T01:10:08;92032.50;;;26.97;34.08
17521;BME280;8878;-33.370;-70.552;2023-02-14T01:12:40;92040.53;;;26.90;34.05
17521;BME280;8878;-33.370;-70.552;2023-02-14T01:15:10;92037.06;;;26.93;34.63
17521;BME280;8878;-33.370;-70.552;2023-02-14T01:17:39;92048.22;;;26.88;33.90
17521;BME280;8878;-33.370;-70.552;2023-02-14T01:20:09;92050.03;;;26.77;33.33
17521;BME280;8878;-33.370;-70.552;2023-02-14T01:22:38;92049.88;;;26.66;34.50
17521;BME280;8878;-33.370;-70.552;2023-02-14T01:25:08;92046.00;;;26.64;34.53
17521;BME280;8878;-33.370;-70.552;2023-02-14T01:27:39;92052.22;;;26.68;33.75
17521;BME280;8878;-33.370;-70.552;2023-02-14T01:30:09;92054.66;;;26.76;33.63
17521;BME280;8878;-33.370;-70.552;2023-02-14T01:32:41;92063.19;;;26.78;33.41
17521;BME280;8878;-33.370;-70.552;2023-02-14T01:35:10;92056.06;;;26.67;35.20
17521;BME280;8878;-33.370;-70.552;2023-02-14T01:37:41;92060.38;;;26.41;35.64
17521;BME280;8878;-33.370;-70.552;2023-02-14T01:40:11;92062.63;;;26.36;34.85
17521;BME280;8878;-33.370;-70.552;2023-02-14T01:42:43;92061.53;;;26.40;34.54
17521;BME280;8878;-33.370;-70.552;2023-02-14T01:45:17;92057.88;;;26.29;34.57
17521;BME280;8878;-33.370;-70.552;2023-02-14T01:47:50;92061.06;;;26.35;35.29
17521;BME280;8878;-33.370;-70.552;2023-02-14T01:50:24;92064.47;;;26.32;35.78
17521;BME280;8878;-33.370;-70.552;2023-02-14T01:52:59;92068.88;;;26.17;35.02
17521;BME280;8878;-33.370;-70.552;2023-02-14T01:55:31;92064.38;;;26.02;36.66
17521;BME280;8878;-33.370;-70.552;2023-02-14T01:58:07;92066.06;;;26.10;35.87
17521;BME280;8878;-33.370;-70.552;2023-02-14T02:00:37;92073.03;;;26.11;36.05
17521;BME280;8878;-33.370;-70.552;2023-02-14T02:03:28;92057.63;;;26.15;36.08
17521;BME280;8878;-33.370;-70.552;2023-02-14T02:06:04;92055.19;;;26.06;36.57
17521;BME280;8878;-33.370;-70.552;2023-02-14T02:08:41;92060.44;;;25.96;36.87
17521;BME280;8878;-33.370;-70.552;2023-02-14T02:11:14;92067.28;;;25.90;36.71
17521;BME280;8878;-33.370;-70.552;2023-02-14T02:13:45;92070.22;;;25.81;36.43
17521;BME280;8878;-33.370;-70.552;2023-02-14T02:16:26;92067.72;;;25.92;35.74
17521;BME280;8878;-33.370;-70.552;2023-02-14T02:19:16;92061.81;;;25.86;37.54
17521;BME280;8878;-33.370;-70.552;2023-02-14T02:22:12;92060.03;;;25.71;38.38
17521;BME280;8878;-33.370;-70.552;2023-02-14T02:24:54;92049.75;;;25.57;38.33
17521;BME280;8878;-33.370;-70.552;2023-02-14T02:27:50;92049.81;;;25.61;37.17
17521;BME280;8878;-33.370;-70.552;2023-02-14T02:30:52;92052.38;;;25.54;38.18
17521;BME280;8878;-33.370;-70.552;2023-02-14T02:34:04;92053.56;;;25.33;39.14
17521;BME280;8878;-33.370;-70.552;2023-02-14T02:37:07;92046.81;;;25.24;39.15
17521;BME280;8878;-33.370;-70.552;2023-02-14T02:39:59;92048.88;;;25.30;39.71
17521;BME280;8878;-33.370;-70.552;2023-02-14T02:42:35;92043.72;;;25.22;40.66
17521;BME280;8878;-33.370;-70.552;2023-02-14T02:45:12;92036.06;;;25.05;39.39
17521;BME280;8878;-33.370;-70.552;2023-02-14T02:47:52;92042.59;;;25.04;39.20
17521;BME280;8878;-33.370;-70.552;2023-02-14T02:50:27;92025.00;;;24.71;38.41
17521;BME280;8878;-33.370;-70.552;2023-02-14T02:53:22;92010.00;;;24.35;38.21
17521;BME280;8878;-33.370;-70.552;2023-02-14T02:55:55;92007.94;;;24.29;38.60
17521;BME280;8878;-33.370;-70.552;2023-02-14T02:58:45;92004.97;;;24.53;37.78
17521;BME280;8878;-33.370;-70.552;2023-02-14T03:01:19;92007.88;;;24.64;37.27
17521;BME280;8878;-33.370;-70.552;2023-02-14T03:03:52;92002.03;;;24.81;37.17
17521;BME280;8878;-33.370;-70.552;2023-02-14T03:06:39;92014.75;;;24.61;37.04
17521;BME280;8878;-33.370;-70.552;2023-02-14T03:09:49;92015.63;;;24.65;37.07
17521;BME280;8878;-33.370;-70.552;2023-02-14T03:15:20;92028.19;;;24.96;36.22
17521;BME280;8878;-33.370;-70.552;2023-02-14T03:17:58;92033.19;;;24.59;36.31
17521;BME280;8878;-33.370;-70.552;2023-02-14T03:20:36;92032.47;;;24.24;36.81
17521;BME280;8878;-33.370;-70.552;2023-02-14T03:23:16;92046.06;;;23.33;38.66
17521;BME280;8878;-33.370;-70.552;2023-02-14T03:25:58;92044.13;;;23.33;38.94
17521;BME280;8878;-33.370;-70.552;2023-02-14T03:28:36;92039.16;;;23.48;38.74
17521;BME280;8878;-33.370;-70.552;2023-02-14T03:31:13;92041.00;;;23.31;38.64
17521;BME280;8878;-33.370;-70.552;2023-02-14T03:33:52;92029.97;;;23.05;39.25
17521;BME280;8878;-33.370;-70.552;2023-02-14T03:36:30;92033.06;;;23.51;38.36
17521;BME280;8878;-33.370;-70.552;2023-02-14T03:39:06;92030.34;;;23.82;37.60
17521;BME280;8878;-33.370;-70.552;2023-02-14T03:41:42;92035.44;;;24.03;37.62
17521;BME280;8878;-33.370;-70.552;2023-02-14T03:44:18;92022.75;;;24.03;37.47
17521;BME280;8878;-33.370;-70.552;2023-02-14T03:46:53;92028.09;;;24.19;38.25
17521;BME280;8878;-33.370;-70.552;2023-02-14T03:49:28;92032.22;;;24.48;37.01
17521;BME280;8878;-33.370;-70.552;2023-02-14T03:52:01;92028.88;;;24.35;37.72
17521;BME280;8878;-33.370;-70.552;2023-02-14T03:54:33;92030.00;;;24.53;37.86
17521;BME280;8878;-33.370;-70.552;2023-02-14T03:57:12;92025.34;;;24.70;40.08
17521;BME280;8878;-33.370;-70.552;2023-02-14T03:59:43;92016.97;;;24.75;38.52
17521;BME280;8878;-33.370;-70.552;2023-02-14T04:02:16;92032.28;;;24.51;38.53
17521;BME280;8878;-33.370;-70.552;2023-02-14T04:04:48;92013.63;;;24.43;40.18
17521;BME280;8878;-33.370;-70.552;2023-02-14T04:07:19;92018.16;;;24.39;41.92
17521;BME280;8878;-33.370;-70.552;2023-02-14T04:09:50;92003.34;;;24.29;41.87
17521;BME280;8878;-33.370;-70.552;2023-02-14T04:12:21;92001.91;;;24.00;40.35
17521;BME280;8878;-33.370;-70.552;2023-02-14T04:14:54;91999.88;;;23.78;40.17
17521;BME280;8878;-33.370;-70.552;2023-02-14T04:17:25;92000.38;;;23.84;39.56
17521;BME280;8878;-33.370;-70.552;2023-02-14T04:20:11;91984.81;;;23.46;40.38
17521;BME280;8878;-33.370;-70.552;2023-02-14T04:22:40;91977.66;;;23.50;39.81
17521;BME280;8878;-33.370;-70.552;2023-02-14T04:25:10;91973.78;;;23.82;40.08
17521;BME280;8878;-33.370;-70.552;2023-02-14T04:27:41;91967.06;;;23.92;39.81
17521;BME280;8878;-33.370;-70.552;2023-02-14T04:30:11;91971.94;;;23.86;40.04
17521;BME280;8878;-33.370;-70.552;2023-02-14T04:32:40;91976.13;;;23.84;39.42
17521;BME280;8878;-33.370;-70.552;2023-02-14T04:35:11;91973.25;;;23.92;39.03
17521;BME280;8878;-33.370;-70.552;2023-02-14T04:37:40;91967.56;;;23.97;40.03
17521;BME280;8878;-33.370;-70.552;2023-02-14T04:40:11;91968.53;;;23.89;39.76
17521;BME280;8878;-33.370;-70.552;2023-02-14T04:42:45;91959.69;;;23.89;39.68
17521;BME280;8878;-33.370;-70.552;2023-02-14T04:45:17;91945.72;;;24.02;40.15
17521;BME280;8878;-33.370;-70.552;2023-02-14T04:47:46;91941.44;;;23.82;40.24
17521;BME280;8878;-33.370;-70.552;2023-02-14T04:50:15;91923.03;;;23.84;40.84
17521;BME280;8878;-33.370;-70.552;2023-02-14T04:52:44;91916.25;;;23.74;40.81
17521;BME280;8878;-33.370;-70.552;2023-02-14T04:55:14;91911.09;;;23.66;40.85
17521;BME280;8878;-33.370;-70.552;2023-02-14T04:57:45;91909.06;;;23.78;42.53
17521;BME280;8878;-33.370;-70.552;2023-02-14T05:00:15;91909.84;;;23.79;43.08
17521;BME280;8878;-33.370;-70.552;2023-02-14T05:02:45;91909.47;;;23.80;42.60
17521;BME280;8878;-33.370;-70.552;2023-02-14T05:05:14;91910.53;;;23.76;41.98
17521;BME280;8878;-33.370;-70.552;2023-02-14T05:07:43;91928.72;;;23.63;41.25
17521;BME280;8878;-33.370;-70.552;2023-02-14T05:10:13;91942.09;;;23.60;42.03
17521;BME280;8878;-33.370;-70.552;2023-02-14T05:12:44;91938.28;;;23.45;40.24
17521;BME280;8878;-33.370;-70.552;2023-02-14T05:15:14;91940.19;;;23.60;39.98
17521;BME280;8878;-33.370;-70.552;2023-02-14T05:17:43;91942.63;;;23.65;39.70
17521;BME280;8878;-33.370;-70.552;2023-02-14T05:20:12;91940.84;;;23.22;39.45
17521;BME280;8878;-33.370;-70.552;2023-02-14T05:22:42;91933.88;;;23.37;40.00
17521;BME280;8878;-33.370;-70.552;2023-02-14T05:25:11;91928.06;;;23.51;40.83
17521;BME280;8878;-33.370;-70.552;2023-02-14T05:27:40;91935.53;;;23.57;40.92
17521;BME280;8878;-33.370;-70.552;2023-02-14T05:30:13;91938.63;;;23.59;39.71
17521;BME280;8878;-33.370;-70.552;2023-02-14T05:32:42;91932.19;;;23.64;39.62
17521;BME280;8878;-33.370;-70.552;2023-02-14T05:35:11;91942.00;;;23.72;40.62
17521;BME280;8878;-33.370;-70.552;2023-02-14T05:37:41;91946.13;;;23.85;39.98
17521;BME280;8878;-33.370;-70.552;2023-02-14T05:40:10;91941.88;;;23.84;41.61
17521;BME280;8878;-33.370;-70.552;2023-02-14T05:42:42;91947.47;;;23.60;42.49
17521;BME280;8878;-33.370;-70.552;2023-02-14T05:45:13;91958.38;;;23.48;42.73
17521;BME280;8878;-33.370;-70.552;2023-02-14T05:47:42;91953.44;;;23.50;42.00
17521;BME280;8878;-33.370;-70.552;2023-02-14T05:50:12;91944.97;;;23.35;42.05
17521;BME280;8878;-33.370;-70.552;2023-02-14T05:52:41;91946.44;;;23.33;43.84
17521;BME280;8878;-33.370;-70.552;2023-02-14T05:55:11;91946.63;;;23.24;44.28
17521;BME280;8878;-33.370;-70.552;2023-02-14T05:57:41;91943.69;;;23.14;44.67
17521;BME280;8878;-33.370;-70.552;2023-02-14T06:00:13;91935.44;;;22.91;45.61
17521;BME280;8878;-33.370;-70.552;2023-02-14T06:02:43;91928.03;;;22.88;45.77
17521;BME280;8878;-33.370;-70.552;2023-02-14T06:05:12;91942.69;;;22.75;44.10
17521;BME280;8878;-33.370;-70.552;2023-02-14T06:07:43;91949.75;;;22.67;43.87
17521;BME280;8878;-33.370;-70.552;2023-02-14T06:10:16;91948.59;;;22.52;43.91
17521;BME280;8878;-33.370;-70.552;2023-02-14T06:12:48;91935.28;;;22.56;43.41
17521;BME280;8878;-33.370;-70.552;2023-02-14T06:15:19;91945.34;;;22.59;43.49
17521;BME280;8878;-33.370;-70.552;2023-02-14T06:17:53;91942.09;;;22.38;44.15
17521;BME280;8878;-33.370;-70.552;2023-02-14T06:20:23;91946.44;;;22.14;44.72
17521;BME280;8878;-33.370;-70.552;2023-02-14T06:22:53;91946.09;;;22.04;43.96
17521;BME280;8878;-33.370;-70.552;2023-02-14T06:25:23;91947.94;;;22.00;43.80
17521;BME280;8878;-33.370;-70.552;2023-02-14T06:27:55;91945.31;;;22.03;43.47
17521;BME280;8878;-33.370;-70.552;2023-02-14T06:30:27;91935.56;;;22.11;43.64
17521;BME280;8878;-33.370;-70.552;2023-02-14T06:32:56;91931.97;;;22.19;43.61
17521;BME280;8878;-33.370;-70.552;2023-02-14T06:35:25;91926.66;;;21.95;43.95
17521;BME280;8878;-33.370;-70.552;2023-02-14T06:37:56;91932.69;;;21.92;43.89
17521;BME280;8878;-33.370;-70.552;2023-02-14T06:40:26;91930.56;;;21.97;43.52
17521;BME280;8878;-33.370;-70.552;2023-02-14T06:42:55;91927.56;;;21.99;43.68
17521;BME280;8878;-33.370;-70.552;2023-02-14T06:45:26;91930.47;;;21.94;44.13
17521;BME280;8878;-33.370;-70.552;2023-02-14T06:47:56;91937.72;;;22.05;43.55
17521;BME280;8878;-33.370;-70.552;2023-02-14T06:50:26;91941.84;;;22.03;43.26
17521;BME280;8878;-33.370;-70.552;2023-02-14T06:52:55;91942.66;;;21.91;43.41
17521;BME280;8878;-33.370;-70.552;2023-02-14T06:55:24;91949.03;;;21.99;43.73
17521;BME280;8878;-33.370;-70.552;2023-02-14T06:57:54;91944.00;;;21.97;42.67
17521;BME280;8878;-33.370;-70.552;2023-02-14T07:00:23;91938.81;;;22.16;42.83
17521;BME280;8878;-33.370;-70.552;2023-02-14T07:02:56;91932.88;;;22.11;43.08
17521;BME280;8878;-33.370;-70.552;2023-02-14T07:05:26;91930.44;;;22.34;42.64
17521;BME280;8878;-33.370;-70.552;2023-02-14T07:07:57;91926.22;;;22.48;42.41
17521;BME280;8878;-33.370;-70.552;2023-02-14T07:10:26;91932.13;;;22.54;42.51
17521;BME280;8878;-33.370;-70.552;2023-02-14T07:12:56;91928.25;;;22.51;42.29
17521;BME280;8878;-33.370;-70.552;2023-02-14T07:15:25;91934.69;;;22.62;42.73
17521;BME280;8878;-33.370;-70.552;2023-02-14T07:17:57;91927.91;;;22.69;42.65
17521;BME280;8878;-33.370;-70.552;2023-02-14T07:20:26;91929.78;;;22.80;42.98
17521;BME280;8878;-33.370;-70.552;2023-02-14T07:22:55;91928.00;;;22.56;43.26
17521;BME280;8878;-33.370;-70.552;2023-02-14T07:25:25;91919.94;;;22.56;42.53
17521;BME280;8878;-33.370;-70.552;2023-02-14T07:27:54;91915.41;;;22.60;42.71
17521;BME280;8878;-33.370;-70.552;2023-02-14T07:30:24;91912.78;;;22.48;42.83
17521;BME280;8878;-33.370;-70.552;2023-02-14T07:32:53;91911.41;;;22.54;43.34
17521;BME280;8878;-33.370;-70.552;2023-02-14T07:35:24;91911.34;;;22.51;43.52
17521;BME280;8878;-33.370;-70.552;2023-02-14T07:37:55;91912.19;;;22.55;43.42
17521;BME280;8878;-33.370;-70.552;2023-02-14T07:40:26;91913.91;;;22.47;43.47
17521;BME280;8878;-33.370;-70.552;2023-02-14T07:42:56;91919.22;;;22.16;43.72
17521;BME280;8878;-33.370;-70.552;2023-02-14T07:45:26;91919.06;;;21.97;43.66
17521;BME280;8878;-33.370;-70.552;2023-02-14T07:47:56;91916.09;;;22.14;43.11
17521;BME280;8878;-33.370;-70.552;2023-02-14T07:50:29;91898.63;;;22.36;42.54
17521;BME280;8878;-33.370;-70.552;2023-02-14T07:52:58;91905.34;;;22.57;41.96
17521;BME280;8878;-33.370;-70.552;2023-02-14T07:55:28;91908.75;;;22.26;41.82
17521;BME280;8878;-33.370;-70.552;2023-02-14T07:57:58;91910.00;;;22.17;42.15
17521;BME280;8878;-33.370;-70.552;2023-02-14T08:00:27;91911.75;;;22.09;41.86
17521;BME280;8878;-33.370;-70.552;2023-02-14T08:02:57;91910.84;;;22.05;42.27
17521;BME280;8878;-33.370;-70.552;2023-02-14T08:05:28;91913.03;;;21.75;42.63
17521;BME280;8878;-33.370;-70.552;2023-02-14T08:07:57;91919.44;;;22.11;42.26
17521;BME280;8878;-33.370;-70.552;2023-02-14T08:10:27;91916.63;;;22.19;43.92
17521;BME280;8878;-33.370;-70.552;2023-02-14T08:12:56;91914.56;;;21.88;43.23
17521;BME280;8878;-33.370;-70.552;2023-02-14T08:15:31;91912.03;;;21.68;43.44
17521;BME280;8878;-33.370;-70.552;2023-02-14T08:18:18;91919.38;;;21.31;44.32
17521;BME280;8878;-33.370;-70.552;2023-02-14T08:20:51;91915.78;;;21.51;43.72
17521;BME280;8878;-33.370;-70.552;2023-02-14T08:23:21;91918.72;;;21.86;43.27
17521;BME280;8878;-33.370;-70.552;2023-02-14T08:25:51;91915.78;;;22.03;44.60
17521;BME280;8878;-33.370;-70.552;2023-02-14T08:28:20;91914.56;;;22.01;44.21
17521;BME280;8878;-33.370;-70.552;2023-02-14T08:30:50;91914.56;;;22.01;44.84
17521;BME280;8878;-33.370;-70.552;2023-02-14T08:33:20;91915.91;;;21.95;44.68
17521;BME280;8878;-33.370;-70.552;2023-02-14T08:35:52;91927.88;;;21.97;44.77
17521;BME280;8878;-33.370;-70.552;2023-02-14T08:38:21;91925.75;;;22.03;44.22
17521;BME280;8878;-33.370;-70.552;2023-02-14T08:40:53;91938.06;;;21.92;44.61
17521;BME280;8878;-33.370;-70.552;2023-02-14T08:43:22;91937.19;;;21.87;44.55
17521;BME280;8878;-33.370;-70.552;2023-02-14T08:45:53;91934.94;;;21.89;43.95
17521;BME280;8878;-33.370;-70.552;2023-02-14T08:48:22;91935.22;;;21.72;44.77
17521;BME280;8878;-33.370;-70.552;2023-02-14T08:50:54;91942.63;;;21.39;45.41
17521;BME280;8878;-33.370;-70.552;2023-02-14T08:53:23;91938.81;;;21.40;45.75
17521;BME280;8878;-33.370;-70.552;2023-02-14T08:55:52;91937.47;;;21.34;46.36
17521;BME280;8878;-33.370;-70.552;2023-02-14T08:58:22;91939.28;;;21.18;46.70
17521;BME280;8878;-33.370;-70.552;2023-02-14T09:00:51;91937.81;;;21.08;46.63
17521;BME280;8878;-33.370;-70.552;2023-02-14T09:03:21;91941.56;;;20.83;46.70
17521;BME280;8878;-33.370;-70.552;2023-02-14T09:05:50;91936.66;;;20.97;46.51
17521;BME280;8878;-33.370;-70.552;2023-02-14T09:08:21;91944.53;;;21.26;45.84
17521;BME280;8878;-33.370;-70.552;2023-02-14T09:10:51;91944.44;;;21.23;45.09
17521;BME280;8878;-33.370;-70.552;2023-02-14T09:13:20;91945.72;;;20.92;45.55
17521;BME280;8878;-33.370;-70.552;2023-02-14T09:15:50;91955.31;;;20.81;45.50
17521;BME280;8878;-33.370;-70.552;2023-02-14T09:18:19;91962.91;;;21.03;45.31
17521;BME280;8878;-33.370;-70.552;2023-02-14T09:20:48;91962.97;;;21.28;44.94
17521;BME280;8878;-33.370;-70.552;2023-02-14T09:23:17;91960.97;;;21.37;44.80
17521;BME280;8878;-33.370;-70.552;2023-02-14T09:25:49;91967.91;;;21.38;44.38
17521;BME280;8878;-33.370;-70.552;2023-02-14T09:28:18;91975.72;;;21.43;44.27
17521;BME280;8878;-33.370;-70.552;2023-02-14T09:30:47;91972.94;;;21.52;44.14
17521;BME280;8878;-33.370;-70.552;2023-02-14T09:33:17;91972.25;;;21.55;44.06
17521;BME280;8878;-33.370;-70.552;2023-02-14T09:35:46;91965.44;;;21.33;44.37
17521;BME280;8878;-33.370;-70.552;2023-02-14T09:38:16;91968.66;;;21.14;44.68
17521;BME280;8878;-33.370;-70.552;2023-02-14T09:40:47;91971.72;;;20.80;45.72
17521;BME280;8878;-33.370;-70.552;2023-02-14T09:43:22;91972.28;;;20.85;45.69
17521;BME280;8878;-33.370;-70.552;2023-02-14T09:45:59;91976.31;;;20.79;46.46
17521;BME280;8878;-33.370;-70.552;2023-02-14T09:48:34;91968.56;;;20.65;46.36
17521;BME280;8878;-33.370;-70.552;2023-02-14T09:51:06;91970.16;;;20.66;46.48
17521;BME280;8878;-33.370;-70.552;2023-02-14T09:53:44;91972.03;;;20.66;46.62
17521;BME280;8878;-33.370;-70.552;2023-02-14T09:56:19;91974.47;;;20.59;47.19
17521;BME280;8878;-33.370;-70.552;2023-02-14T09:58:55;91970.00;;;20.63;46.90
17521;BME280;8878;-33.370;-70.552;2023-02-14T10:01:33;91964.66;;;20.63;46.73
17521;BME280;8878;-33.370;-70.552;2023-02-14T10:04:17;91964.19;;;20.61;46.63
17521;BME280;8878;-33.370;-70.552;2023-02-14T10:06:51;91963.13;;;20.74;46.63
17521;BME280;8878;-33.370;-70.552;2023-02-14T10:09:39;91970.72;;;20.84;46.02
17521;BME280;8878;-33.370;-70.552;2023-02-14T10:12:18;91958.78;;;20.94;45.78
17521;BME280;8878;-33.370;-70.552;2023-02-14T10:14:50;91961.81;;;21.04;45.43
17521;BME280;8878;-33.370;-70.552;2023-02-14T10:17:27;91966.88;;;21.18;45.64
17521;BME280;8878;-33.370;-70.552;2023-02-14T10:20:02;91966.34;;;21.37;44.95
17521;BME280;8878;-33.370;-70.552;2023-02-14T10:22:39;91962.53;;;21.38;45.47
17521;BME280;8878;-33.370;-70.552;2023-02-14T10:25:15;91965.56;;;21.36;45.15
17521;BME280;8878;-33.370;-70.552;2023-02-14T10:27:48;91965.88;;;21.35;45.38
17521;BME280;8878;-33.370;-70.552;2023-02-14T10:30:20;91973.22;;;21.14;45.72
17521;BME280;8878;-33.370;-70.552;2023-02-14T10:32:55;91973.78;;;21.07;45.38
17521;BME280;8878;-33.370;-70.552;2023-02-14T10:35:39;91966.28;;;21.13;45.23
17521;BME280;8878;-33.370;-70.552;2023-02-14T10:38:21;91978.75;;;21.17;45.44
17521;BME280;8878;-33.370;-70.552;2023-02-14T10:41:09;91970.81;;;21.21;45.21
17521;BME280;8878;-33.370;-70.552;2023-02-14T10:43:49;91967.56;;;21.27;45.49
17521;BME280;8878;-33.370;-70.552;2023-02-14T10:46:32;91983.66;;;21.27;45.49
17521;BME280;8878;-33.370;-70.552;2023-02-14T10:49:15;91990.69;;;21.32;45.14
17521;BME280;8878;-33.370;-70.552;2023-02-14T10:51:53;91988.91;;;21.36;45.12
17521;BME280;8878;-33.370;-70.552;2023-02-14T10:54:26;91991.16;;;21.34;45.44
17521;BME280;8878;-33.370;-70.552;2023-02-14T10:56:59;91982.53;;;21.28;45.16
17521;BME280;8878;-33.370;-70.552;2023-02-14T10:59:37;91992.81;;;21.26;45.39
17521;BME280;8878;-33.370;-70.552;2023-02-14T11:02:13;91995.06;;;21.24;44.86
17521;BME280;8878;-33.370;-70.552;2023-02-14T11:04:45;91990.75;;;21.11;44.52
17521;BME280;8878;-33.370;-70.552;2023-02-14T11:07:17;91997.84;;;21.40;44.36
17521;BME280;8878;-33.370;-70.552;2023-02-14T11:09:47;91991.94;;;21.59;43.46
17521;BME280;8878;-33.370;-70.552;2023-02-14T11:12:31;91995.63;;;21.42;44.06
17521;BME280;8878;-33.370;-70.552;2023-02-14T11:15:25;91997.84;;;21.40;43.68
17521;BME280;8878;-33.370;-70.552;2023-02-14T11:18:19;92002.78;;;21.50;43.51
17521;BME280;8878;-33.370;-70.552;2023-02-14T11:20:59;92004.69;;;21.62;43.10
17521;BME280;8878;-33.370;-70.552;2023-02-14T11:23:33;92006.94;;;21.60;43.54
17521;BME280;8878;-33.370;-70.552;2023-02-14T11:26:04;92011.97;;;21.73;43.58
17521;BME280;8878;-33.370;-70.552;2023-02-14T11:28:34;92015.16;;;22.03;43.12
17521;BME280;8878;-33.370;-70.552;2023-02-14T11:31:05;92017.44;;;21.77;41.41
17521;BME280;8878;-33.370;-70.552;2023-02-14T11:33:37;92020.13;;;21.65;42.29
17521;BME280;8878;-33.370;-70.552;2023-02-14T11:36:11;92027.41;;;21.64;42.56
17521;BME280;8878;-33.370;-70.552;2023-02-14T11:38:43;92019.31;;;21.88;41.71
17521;BME280;8878;-33.370;-70.552;2023-02-14T11:41:14;92023.47;;;21.98;41.52
17521;BME280;8878;-33.370;-70.552;2023-02-14T11:43:45;92024.38;;;22.02;41.46
17521;BME280;8878;-33.370;-70.552;2023-02-14T11:46:26;92024.31;;;22.26;41.21
17521;BME280;8878;-33.370;-70.552;2023-02-14T11:48:58;92019.75;;;22.03;41.50
17521;BME280;8878;-33.370;-70.552;2023-02-14T11:51:30;92018.47;;;22.24;41.32
17521;BME280;8878;-33.370;-70.552;2023-02-14T11:54:00;92017.88;;;22.43;41.53
17521;BME280;8878;-33.370;-70.552;2023-02-14T11:56:47;92027.31;;;22.25;41.27
17521;BME280;8878;-33.370;-70.552;2023-02-14T11:59:27;92024.13;;;22.47;41.49
17521;BME280;8878;-33.370;-70.552;2023-02-14T12:02:01;92026.03;;;22.47;41.71
17521;BME280;8878;-33.370;-70.552;2023-02-14T12:04:34;92030.00;;;22.37;42.21
17521;BME280;8878;-33.370;-70.552;2023-02-14T12:07:26;92025.03;;;22.51;41.61
17521;BME280;8878;-33.370;-70.552;2023-02-14T12:10:25;92021.59;;;22.66;41.76
17521;BME280;8878;-33.370;-70.552;2023-02-14T12:12:58;92020.72;;;22.62;41.49
17521;BME280;8878;-33.370;-70.552;2023-02-14T12:15:32;92021.31;;;22.84;41.18
17521;BME280;8878;-33.370;-70.552;2023-02-14T12:18:29;92019.75;;;23.26;40.73
17521;BME280;8878;-33.370;-70.552;2023-02-14T12:21:20;92024.09;;;23.15;41.13
17521;BME280;8878;-33.370;-70.552;2023-02-14T12:23:58;92026.78;;;23.15;40.45
17521;BME280;8878;-33.370;-70.552;2023-02-14T12:26:34;92021.63;;;22.94;41.00
17521;BME280;8878;-33.370;-70.552;2023-02-14T12:29:11;92025.31;;;22.62;41.56
17521;BME280;8878;-33.370;-70.552;2023-02-14T12:31:46;92017.50;;;22.57;42.36
17521;BME280;8878;-33.370;-70.552;2023-02-14T12:34:20;92018.78;;;22.75;41.80
17521;BME280;8878;-33.370;-70.552;2023-02-14T12:37:05;92021.81;;;23.01;40.32
17521;BME280;8878;-33.370;-70.552;2023-02-14T12:39:45;92014.38;;;23.42;40.57
17521;BME280;8878;-33.370;-70.552;2023-02-14T12:42:26;92018.78;;;23.34;40.12
17521;BME280;8878;-33.370;-70.552;2023-02-14T12:45:09;92025.41;;;23.37;39.68
17521;BME280;8878;-33.370;-70.552;2023-02-14T12:47:48;92024.19;;;23.34;39.86
17521;BME280;8878;-33.370;-70.552;2023-02-14T12:50:41;92016.53;;;23.36;39.88
17521;BME280;8878;-33.370;-70.552;2023-02-14T12:53:35;92018.50;;;23.52;38.36
17521;BME280;8878;-33.370;-70.552;2023-02-14T12:56:11;92005.38;;;24.01;37.90
17521;BME280;8878;-33.370;-70.552;2023-02-14T12:58:48;92011.97;;;24.38;37.78
17521;BME280;8878;-33.370;-70.552;2023-02-14T13:01:39;91998.78;;;24.52;36.83
17521;BME280;8878;-33.370;-70.552;2023-02-14T13:04:27;92006.22;;;24.40;37.67
17521;BME280;8878;-33.370;-70.552;2023-02-14T13:07:07;92004.13;;;24.30;36.65
17521;BME280;8878;-33.370;-70.552;2023-02-14T13:09:46;92004.31;;;24.21;37.74
17521;BME280;8878;-33.370;-70.552;2023-02-14T13:12:29;92005.59;;;24.27;38.28
17521;BME280;8878;-33.370;-70.552;2023-02-14T13:15:12;92002.41;;;24.60;37.21
17521;BME280;8878;-33.370;-70.552;2023-02-14T13:17:45;92012.56;;;24.28;37.78
17521;BME280;8878;-33.370;-70.552;2023-02-14T13:20:30;92006.38;;;24.47;38.04